Time;durP1;ratioP1;P1;durP2;ratioP2;P2;SDS_P1;SDS_P2;PMS_P1;PMS_P2;Temp;Humidity;BMP_temperature;BMP_pressure;BME280_temperature;BME280_humidity;BME280_pressure;Samples;Min_cycle;Max_cycle;Signal;HPM_P1;HPM_P2
2023/12/27 00:00:36;;;;;;;;;;;;;;;17.17;48.16;100768.00;5078284;28;1131;-50
2023/12/27 00:03:02;;;;;;;;;;;;;;;17.02;47.76;100777.91;5073911;28;1092;-46
2023/12/27 00:05:27;;;;;;;;;;;;;;;18.28;47.79;100780.78;5066672;28;1099;-49
2023/12/27 00:07:53;;;;;;;;;;;;;;;17.28;48.55;100784.19;5076436;28;1060;-49
2023/12/27 00:10:19;;;;;;;;;;;;;;;17.05;47.64;100787.53;5078167;28;1031;-43
2023/12/27 00:12:44;;;;;;;;;;;;;;;17.35;48.38;100791.31;5073561;28;1910;-46
2023/12/27 00:15:10;;;;;;;;;;;;;;;17.83;48.32;100791.72;5069759;28;1134;-49
2023/12/27 00:17:35;;;;;;;;;;;;;;;17.19;48.38;100790.53;5060049;28;1210;-49
2023/12/27 00:20:02;;;;;;;;;;;;;;;17.01;47.11;100798.25;5060980;28;1107;-49
2023/12/27 00:22:28;;;;;;;;;;;;;;;16.84;47.26;100792.19;5063143;28;1051;-48
2023/12/27 00:24:53;;;;;;;;;;;;;;;17.87;48.01;100798.31;5077622;28;1130;-49
2023/12/27 00:27:19;;;;;;;;;;;;;;;17.22;48.21;100796.31;5078114;28;1074;-45
2023/12/27 00:29:44;;;;;;;;;;;;;;;16.92;47.59;100802.66;5078158;28;1066;-47
2023/12/27 00:32:11;;;;;;;;;;;;;;;17.79;48.31;100796.97;5077218;28;2022;-47
2023/12/27 00:34:36;;;;;;;;;;;;;;;17.61;48.59;100805.81;5059742;28;1103;-48
2023/12/27 00:37:02;;;;;;;;;;;;;;;17.23;47.87;100808.91;5042238;28;1067;-45
2023/12/27 00:39:28;;;;;;;;;;;;;;;16.92;47.20;100810.88;5069663;28;1214;-45
2023/12/27 00:41:56;;;;;;;;;;;;;;;16.84;46.35;100814.16;5064386;28;1126;-48
2023/12/27 00:44:21;;;;;;;;;;;;;;;18.09;47.88;100803.47;5077440;28;1098;-47
2023/12/27 00:46:47;;;;;;;;;;;;;;;17.23;48.54;100810.84;5059073;28;1307;-44
2023/12/27 00:49:12;;;;;;;;;;;;;;;16.95;47.38;100802.09;5077878;28;1024;-47
2023/12/27 00:51:38;;;;;;;;;;;;;;;17.98;48.03;100793.63;5077568;28;1067;-47
2023/12/27 00:54:04;;;;;;;;;;;;;;;17.47;48.58;100799.28;5077324;28;1967;-49
2023/12/27 00:56:29;;;;;;;;;;;;;;;17.03;47.92;100793.28;5071989;28;1055;-46
2023/12/27 00:58:55;;;;;;;;;;;;;;;16.79;47.13;100795.75;5059735;28;1168;-45
2023/12/27 01:01:20;;;;;;;;;;;;;;;17.76;48.04;100802.19;5076608;28;1122;-50
2023/12/27 01:03:47;;;;;;;;;;;;;;;17.36;48.56;100799.31;5066250;28;1086;-48
2023/12/27 01:06:12;;;;;;;;;;;;;;;16.96;48.21;100800.16;5057659;28;1071;-47
2023/12/27 01:08:38;;;;;;;;;;;;;;;18.06;47.99;100794.94;5050591;28;1233;-46
2023/12/27 01:11:04;;;;;;;;;;;;;;;17.43;48.27;100799.84;5064152;28;1118;-47
2023/12/27 01:13:30;;;;;;;;;;;;;;;17.16;47.45;100799.34;5077140;28;1914;-47
2023/12/27 01:15:57;;;;;;;;;;;;;;;16.84;47.23;100803.16;5058926;28;1045;-47
2023/12/27 01:18:23;;;;;;;;;;;;;;;17.95;48.10;100807.94;5047672;28;1079;-49
2023/12/27 01:20:48;;;;;;;;;;;;;;;17.21;48.38;100810.31;5075331;28;1147;-50
2023/12/27 01:23:14;;;;;;;;;;;;;;;16.91;47.72;100807.31;5077139;28;1113;-46
2023/12/27 01:25:40;;;;;;;;;;;;;;;18.18;47.55;100808.38;5045851;28;1562;-47
2023/12/27 01:28:05;;;;;;;;;;;;;;;17.17;48.62;100809.22;5077249;28;1214;-48
2023/12/27 01:30:31;;;;;;;;;;;;;;;17.00;47.81;100815.00;5076740;28;1147;-43
2023/12/27 01:32:56;;;;;;;;;;;;;;;18.11;47.89;100819.69;5058567;28;1981;-48
2023/12/27 01:35:22;;;;;;;;;;;;;;;17.48;48.24;100811.91;5058342;28;1096;-49
2023/12/27 01:37:48;;;;;;;;;;;;;;;17.07;47.94;100816.38;5057576;28;1035;-47
2023/12/27 01:40:14;;;;;;;;;;;;;;;17.92;48.16;100822.22;5074487;28;1191;-47
2023/12/27 01:42:40;;;;;;;;;;;;;;;17.72;48.17;100821.19;5058567;28;1097;-49
2023/12/27 01:45:06;;;;;;;;;;;;;;;17.25;47.92;100822.38;5050728;28;1110;-48
2023/12/27 01:47:33;;;;;;;;;;;;;;;17.03;47.00;100823.50;5076609;28;1019;-47
2023/12/27 01:49:58;;;;;;;;;;;;;;;16.83;46.53;100826.22;5072213;28;1090;-49
2023/12/27 01:52:24;;;;;;;;;;;;;;;17.68;48.24;100814.59;5056616;28;1979;-48
2023/12/27 01:54:50;;;;;;;;;;;;;;;17.12;48.30;100829.28;5051852;28;1071;-46
2023/12/27 01:57:15;;;;;;;;;;;;;;;16.90;47.40;100826.81;5067617;28;884;-45
2023/12/27 01:59:41;;;;;;;;;;;;;;;16.75;46.93;100828.41;5054113;28;1099;-44
2023/12/27 02:02:07;;;;;;;;;;;;;;;17.79;47.80;100824.47;5022158;28;1144;-49
2023/12/27 02:04:32;;;;;;;;;;;;;;;17.02;48.11;100815.56;5056559;28;1234;-48
2023/12/27 02:06:58;;;;;;;;;;;;;;;16.81;47.55;100829.25;5056541;28;1226;-49
2023/12/27 02:09:24;;;;;;;;;;;;;;;16.71;46.61;100832.00;5039459;28;1127;-49
2023/12/27 02:11:49;;;;;;;;;;;;;;;17.03;47.55;100828.19;5058515;28;1191;-49
2023/12/27 02:14:16;;;;;;;;;;;;;;;18.06;47.62;100826.03;5076142;28;2058;-48
2023/12/27 02:16:41;;;;;;;;;;;;;;;17.13;48.21;100827.38;5057891;28;1059;-47
2023/12/27 02:19:07;;;;;;;;;;;;;;;17.81;48.47;100835.19;5058246;28;1378;-48
2023/12/27 02:21:33;;;;;;;;;;;;;;;17.68;48.42;100819.28;5058231;28;853;-47
2023/12/27 02:23:59;;;;;;;;;;;;;;;17.13;47.93;100808.94;5045166;28;1128;-45
2023/12/27 02:26:25;;;;;;;;;;;;;;;16.92;47.13;100802.66;5058328;28;1147;-45
2023/12/27 02:28:51;;;;;;;;;;;;;;;17.24;48.05;100801.53;5075950;28;1117;-48
2023/12/27 02:31:16;;;;;;;;;;;;;;;17.59;48.09;100800.59;5057996;28;1091;-46
2023/12/27 02:33:43;;;;;;;;;;;;;;;17.04;47.93;100808.69;5071182;28;1986;-45
2023/12/27 02:36:10;;;;;;;;;;;;;;;16.81;46.97;100818.25;5076164;28;1090;-48
2023/12/27 02:38:35;;;;;;;;;;;;;;;16.83;47.01;100815.25;5075871;28;1170;-45
2023/12/27 02:41:02;;;;;;;;;;;;;;;17.94;47.75;100809.84;5057998;28;1114;-45
2023/12/27 02:43:30;;;;;;;;;;;;;;;17.12;48.26;100811.97;5057846;28;1309;-43
2023/12/27 02:45:55;;;;;;;;;;;;;;;16.82;47.41;100821.84;5057630;28;1589;-47
2023/12/27 02:48:21;;;;;;;;;;;;;;;17.60;48.04;100816.00;5053382;28;1145;-44
2023/12/27 02:50:47;;;;;;;;;;;;;;;17.64;48.04;100821.75;5067327;28;1106;-45
2023/12/27 02:53:13;;;;;;;;;;;;;;;17.09;48.06;100822.41;5062277;28;1973;-47
2023/12/27 02:55:39;;;;;;;;;;;;;;;18.29;47.48;100830.03;5050238;28;1734;-46
2023/12/27 02:58:05;;;;;;;;;;;;;;;17.44;48.19;100833.63;5062336;28;1244;-45
2023/12/27 03:00:35;;;;;;;;;;;;;;;17.08;47.72;100842.75;5061828;28;1111;-47
2023/12/27 03:03:03;;;;;;;;;;;;;;;16.90;47.07;100843.28;5056601;28;1290;-46
2023/12/27 03:05:29;;;;;;;;;;;;;;;17.05;47.47;100856.19;5071853;28;1039;-47
2023/12/27 03:07:54;;;;;;;;;;;;;;;18.09;47.54;100846.66;5079337;28;1180;-48
2023/12/27 03:10:21;;;;;;;;;;;;;;;17.32;47.87;100853.19;5067601;28;897;-50
2023/12/27 03:12:46;;;;;;;;;;;;;;;16.93;47.59;100857.31;5078337;28;1965;-44
2023/12/27 03:15:12;;;;;;;;;;;;;;;17.02;47.42;100859.50;5061200;28;1060;-47
2023/12/27 03:17:37;;;;;;;;;;;;;;;18.33;47.12;100865.25;5079380;28;1144;-46
2023/12/27 03:20:03;;;;;;;;;;;;;;;17.32;48.27;100877.06;5079607;28;1115;-46
2023/12/27 03:22:29;;;;;;;;;;;;;;;16.98;47.55;100870.19;5055445;28;1589;-46
2023/12/27 03:24:54;;;;;;;;;;;;;;;16.79;47.24;100882.78;5059626;28;1088;-48
2023/12/27 03:27:20;;;;;;;;;;;;;;;17.43;48.18;100886.94;5072695;28;1229;-45
2023/12/27 03:29:45;;;;;;;;;;;;;;;17.64;48.22;100893.25;5053470;28;1092;-46
2023/12/27 03:32:11;;;;;;;;;;;;;;;17.11;47.99;100907.31;5073585;28;1122;-51
2023/12/27 03:34:38;;;;;;;;;;;;;;;16.85;47.44;100909.19;5076027;28;1977;-47
2023/12/27 03:37:04;;;;;;;;;;;;;;;17.51;48.03;100905.66;5077747;28;1102;-48
2023/12/27 03:39:29;;;;;;;;;;;;;;;17.49;48.22;100907.00;5067492;28;1113;-46
2023/12/27 03:41:55;;;;;;;;;;;;;;;17.08;47.69;100881.22;5064451;28;1291;-47
2023/12/27 03:44:20;;;;;;;;;;;;;;;16.82;46.90;100906.97;5075115;28;1123;-50
2023/12/27 03:46:46;;;;;;;;;;;;;;;17.51;47.75;100910.31;5072217;28;1080;-47
2023/12/27 03:49:11;;;;;;;;;;;;;;;17.44;48.42;100927.91;5067448;28;1151;-47
2023/12/27 03:51:37;;;;;;;;;;;;;;;16.97;47.78;100931.75;5058829;28;1036;-49
2023/12/27 03:54:03;;;;;;;;;;;;;;;16.79;47.06;100937.72;5078624;28;1976;-47
2023/12/27 03:56:29;;;;;;;;;;;;;;;16.75;47.27;100941.00;5060242;28;2408;-48
2023/12/27 03:58:54;;;;;;;;;;;;;;;17.88;47.56;100959.50;5061135;28;936;-47
2023/12/27 04:01:23;;;;;;;;;;;;;;;17.12;48.19;100963.91;5057759;28;1406;-50
2023/12/27 04:03:48;;;;;;;;;;;;;;;16.74;47.37;100968.75;5070802;28;1032;-47
2023/12/27 04:06:18;;;;;;;;;;;;;;;17.41;48.21;100966.94;5060303;28;1129;-44
2023/12/27 04:08:44;;;;;;;;;;;;;;;17.52;47.71;100978.78;5077582;28;1113;-48
2023/12/27 04:11:10;;;;;;;;;;;;;;;17.02;47.67;100981.19;5072093;28;929;-49
2023/12/27 04:13:35;;;;;;;;;;;;;;;17.06;48.00;100985.06;5050402;28;1985;-49
2023/12/27 04:16:01;;;;;;;;;;;;;;;17.68;47.78;100987.03;5078183;28;1019;-49
2023/12/27 04:18:26;;;;;;;;;;;;;;;17.01;48.12;100989.72;5068349;28;1063;-45
2023/12/27 04:20:52;;;;;;;;;;;;;;;16.78;47.06;100986.31;5056644;28;1702;-48
2023/12/27 04:23:17;;;;;;;;;;;;;;;16.74;46.16;100994.25;5077451;28;874;-49
2023/12/27 04:25:44;;;;;;;;;;;;;;;17.24;47.61;100997.44;5079869;28;1290;-47
2023/12/27 04:28:09;;;;;;;;;;;;;;;17.43;47.99;101003.25;5078403;28;929;-47
2023/12/27 04:30:35;;;;;;;;;;;;;;;16.89;47.51;101003.69;5062144;28;885;-46
2023/12/27 04:33:00;;;;;;;;;;;;;;;16.69;46.95;101004.41;5050398;28;1975;-50
2023/12/27 04:35:26;;;;;;;;;;;;;;;17.39;47.72;101013.16;5059908;28;1298;-47
2023/12/27 04:37:52;;;;;;;;;;;;;;;17.47;47.94;101002.69;5056783;28;1516;-48
2023/12/27 04:40:18;;;;;;;;;;;;;;;16.99;47.50;101020.19;5053469;28;1155;-47
2023/12/27 04:42:43;;;;;;;;;;;;;;;16.67;46.77;101017.59;5069095;28;1087;-47
2023/12/27 04:45:09;;;;;;;;;;;;;;;16.54;46.46;101014.25;5063381;28;1083;-48
2023/12/27 04:47:35;;;;;;;;;;;;;;;17.93;47.36;101027.47;5069593;28;1214;-44
2023/12/27 04:50:00;;;;;;;;;;;;;;;17.38;47.95;101035.41;5077606;28;1086;-49
2023/12/27 04:52:26;;;;;;;;;;;;;;;16.83;47.70;101029.44;5077147;28;1910;-49
2023/12/27 04:54:52;;;;;;;;;;;;;;;16.81;47.37;101045.38;5044218;28;1111;-50
2023/12/27 04:57:18;;;;;;;;;;;;;;;18.13;47.15;101049.47;5058438;28;1132;-53
2023/12/27 04:59:44;;;;;;;;;;;;;;;17.16;48.29;101057.63;5055441;28;1210;-47
2023/12/27 05:02:09;;;;;;;;;;;;;;;16.82;47.51;101053.34;5039661;28;1166;-44
2023/12/27 05:04:35;;;;;;;;;;;;;;;17.78;47.69;101050.28;5042958;28;1170;-45
2023/12/27 05:07:00;;;;;;;;;;;;;;;17.56;47.79;101053.31;5077067;28;1141;-44
2023/12/27 05:09:26;;;;;;;;;;;;;;;17.06;47.80;101045.50;5045652;28;1218;-45
2023/12/27 05:11:52;;;;;;;;;;;;;;;16.84;47.02;101048.41;5077115;28;1055;-45
2023/12/27 05:14:17;;;;;;;;;;;;;;;17.08;47.72;101059.81;5063795;28;1921;-47
2023/12/27 05:16:47;;;;;;;;;;;;;;;17.79;47.67;101077.53;5076690;28;1154;-45
2023/12/27 05:19:13;;;;;;;;;;;;;;;17.07;47.85;101076.56;5063422;28;1151;-46
2023/12/27 05:21:39;;;;;;;;;;;;;;;16.80;47.33;101077.50;5073605;28;1059;-48
2023/12/27 05:24:04;;;;;;;;;;;;;;;17.88;47.48;101090.72;5068468;28;1063;-48
2023/12/27 05:26:30;;;;;;;;;;;;;;;17.82;47.28;101106.38;5074069;28;1107;-47
2023/12/27 05:28:56;;;;;;;;;;;;;;;17.18;48.92;101113.13;5066276;28;1102;-48
2023/12/27 05:31:21;;;;;;;;;;;;;;;16.81;49.65;101105.81;5073371;28;1062;-50
2023/12/27 05:33:47;;;;;;;;;;;;;;;16.55;50.46;101105.66;5047957;28;1902;-48
2023/12/27 05:36:13;;;;;;;;;;;;;;;16.41;50.42;101097.91;5076296;28;1081;-50
2023/12/27 05:38:38;;;;;;;;;;;;;;;16.30;50.89;101098.06;5076314;28;1100;-48
2023/12/27 05:41:04;;;;;;;;;;;;;;;16.17;50.91;101082.91;5076698;28;1059;-47
2023/12/27 05:43:30;;;;;;;;;;;;;;;16.05;51.43;101086.66;5071034;28;1115;-51
2023/12/27 05:45:56;;;;;;;;;;;;;;;15.87;51.44;101081.56;5056020;28;1064;-47
2023/12/27 05:48:21;;;;;;;;;;;;;;;15.83;51.46;101085.94;5074520;28;1055;-45
2023/12/27 05:50:47;;;;;;;;;;;;;;;15.72;51.75;101085.81;5046740;28;1055;-48
2023/12/27 05:53:12;;;;;;;;;;;;;;;15.66;51.78;101097.81;5069871;28;1914;-45
2023/12/27 05:55:38;;;;;;;;;;;;;;;16.37;50.61;101101.44;5067305;28;1087;-47
2023/12/27 05:58:04;;;;;;;;;;;;;;;17.54;47.34;101108.53;5072141;28;1074;-49
2023/12/27 06:00:29;;;;;;;;;;;;;;;16.63;49.54;101113.38;5067605;28;1171;-48
2023/12/27 06:02:55;;;;;;;;;;;;;;;16.23;50.43;101128.50;5062711;28;1098;-48
2023/12/27 06:05:22;;;;;;;;;;;;;;;16.01;50.80;101121.19;5075176;28;1135;-48
2023/12/27 06:07:47;;;;;;;;;;;;;;;15.73;51.72;101131.31;5075837;28;1140;-49
2023/12/27 06:10:13;;;;;;;;;;;;;;;15.66;51.77;101135.38;5075633;28;1149;-48
2023/12/27 06:12:39;;;;;;;;;;;;;;;15.56;52.08;101130.59;5075586;28;1986;-49
2023/12/27 06:15:05;;;;;;;;;;;;;;;16.99;48.73;101138.34;5057806;28;1167;-50
2023/12/27 06:17:30;;;;;;;;;;;;;;;17.01;48.43;101136.16;5075704;28;1020;-47
2023/12/27 06:19:56;;;;;;;;;;;;;;;16.30;50.28;101134.59;5075489;28;1110;-47
2023/12/27 06:22:21;;;;;;;;;;;;;;;15.99;50.96;101126.13;5057766;28;1086;-45
2023/12/27 06:24:47;;;;;;;;;;;;;;;15.79;51.46;101134.97;5071615;28;1108;-46
2023/12/27 06:27:12;;;;;;;;;;;;;;;15.64;51.78;101127.41;5071141;28;1058;-46
2023/12/27 06:29:39;;;;;;;;;;;;;;;16.71;49.57;101151.31;5055809;28;1079;-47
2023/12/27 06:32:05;;;;;;;;;;;;;;;17.64;46.83;101151.75;5075964;28;1125;-49
2023/12/27 06:34:30;;;;;;;;;;;;;;;16.61;49.47;101151.28;5078953;28;1909;-48
2023/12/27 06:36:56;;;;;;;;;;;;;;;16.20;50.41;101135.34;5066694;28;1071;-45
2023/12/27 06:39:21;;;;;;;;;;;;;;;15.96;51.12;101143.06;5068969;28;1146;-46
2023/12/27 06:41:47;;;;;;;;;;;;;;;15.80;51.39;101138.56;5077386;28;1072;-46
2023/12/27 06:44:13;;;;;;;;;;;;;;;15.62;52.09;101140.53;5079598;28;1043;-47
2023/12/27 06:46:39;;;;;;;;;;;;;;;15.87;51.66;101144.66;5074926;28;1087;-46
2023/12/27 06:49:04;;;;;;;;;;;;;;;17.41;47.44;101140.13;5079136;28;1069;-48
2023/12/27 06:51:30;;;;;;;;;;;;;;;16.85;48.90;101145.38;5079007;28;1153;-44
2023/12/27 06:53:55;;;;;;;;;;;;;;;16.24;50.29;101146.59;5079150;28;1909;-46
2023/12/27 06:56:21;;;;;;;;;;;;;;;15.97;50.87;101146.66;5066806;28;1021;-48
2023/12/27 06:58:47;;;;;;;;;;;;;;;15.81;51.56;101141.03;5078280;28;1059;-47
2023/12/27 07:01:14;;;;;;;;;;;;;;;15.72;51.47;101140.66;5079307;28;1111;-44
2023/12/27 07:03:39;;;;;;;;;;;;;;;16.44;50.14;101134.97;5073177;28;1075;-45
2023/12/27 07:06:05;;;;;;;;;;;;;;;17.63;46.99;101128.13;5072150;28;1068;-49
2023/12/27 07:08:31;;;;;;;;;;;;;;;16.61;49.23;101132.06;5079024;28;1051;-46
2023/12/27 07:10:57;;;;;;;;;;;;;;;16.16;50.41;101125.97;5066187;28;1086;-48
2023/12/27 07:13:22;;;;;;;;;;;;;;;15.98;51.15;101126.38;5078194;28;1970;-47
2023/12/27 07:15:48;;;;;;;;;;;;;;;15.77;51.69;101141.75;5078908;28;1180;-45
2023/12/27 07:18:13;;;;;;;;;;;;;;;15.65;51.72;101153.72;5078914;28;1079;-44
2023/12/27 07:20:39;;;;;;;;;;;;;;;16.68;49.53;101157.34;5078906;28;1138;-46
2023/12/27 07:23:05;;;;;;;;;;;;;;;17.63;47.02;101188.59;5078114;28;1190;-48
2023/12/27 07:25:30;;;;;;;;;;;;;;;16.54;49.46;101189.94;5066841;28;1052;-44
2023/12/27 07:27:56;;;;;;;;;;;;;;;16.15;50.45;101205.81;5077620;28;1405;-49
2023/12/27 07:30:22;;;;;;;;;;;;;;;15.97;51.05;101202.34;5079073;28;1034;-45
2023/12/27 07:32:47;;;;;;;;;;;;;;;15.68;51.97;101194.34;5079092;28;1974;-44
2023/12/27 07:35:13;;;;;;;;;;;;;;;15.57;51.93;101198.88;5072633;28;1214;-48
2023/12/27 07:37:40;;;;;;;;;;;;;;;16.63;49.56;101194.94;5069202;28;1162;-46
2023/12/27 07:40:06;;;;;;;;;;;;;;;17.75;46.78;101202.94;5075033;28;1174;-43
2023/12/27 07:42:31;;;;;;;;;;;;;;;16.64;49.56;101205.66;5058076;28;1143;-48
2023/12/27 07:44:57;;;;;;;;;;;;;;;16.20;50.83;101211.31;5058338;28;1017;-46
2023/12/27 07:47:23;;;;;;;;;;;;;;;15.98;51.13;101204.00;5065487;28;1174;-50
2023/12/27 07:49:48;;;;;;;;;;;;;;;15.82;51.64;101227.69;5064786;28;1170;-49
2023/12/27 07:52:14;;;;;;;;;;;;;;;15.69;51.81;101234.34;5078582;28;1138;-44
2023/12/27 07:54:39;;;;;;;;;;;;;;;15.59;52.41;101238.91;5077904;28;1909;-47
2023/12/27 07:57:05;;;;;;;;;;;;;;;17.15;48.58;101242.81;5078274;28;1182;-45
2023/12/27 07:59:31;;;;;;;;;;;;;;;17.06;48.48;101246.06;5068637;28;1199;-45
2023/12/27 08:01:57;;;;;;;;;;;;;;;16.31;50.31;101247.94;5078405;28;1106;-46
2023/12/27 08:04:22;;;;;;;;;;;;;;;16.00;51.20;101256.66;5077969;28;1220;-48
2023/12/27 08:06:49;;;;;;;;;;;;;;;15.82;51.71;101255.13;5078434;28;1034;-45
2023/12/27 08:09:15;;;;;;;;;;;;;;;15.71;51.83;101265.09;5078497;28;1210;-44
2023/12/27 08:11:40;;;;;;;;;;;;;;;17.03;48.99;101274.06;5077424;28;1110;-49
2023/12/27 08:14:06;;;;;;;;;;;;;;;17.03;48.73;101274.06;5074707;28;1910;-47
2023/12/27 08:16:32;;;;;;;;;;;;;;;16.34;50.33;101278.44;5068397;28;1119;-45
2023/12/27 08:18:57;;;;;;;;;;;;;;;16.00;51.34;101284.09;5074328;28;1054;-49
2023/12/27 08:21:23;;;;;;;;;;;;;;;15.87;51.68;101290.00;5068640;28;1039;-43
2023/12/27 08:23:49;;;;;;;;;;;;;;;15.63;52.26;101294.88;5077684;28;1114;-47
2023/12/27 08:26:14;;;;;;;;;;;;;;;15.54;52.35;101306.28;5077778;28;1082;-46
2023/12/27 08:28:40;;;;;;;;;;;;;;;16.56;49.95;101319.56;5077408;28;1105;-48
2023/12/27 08:31:06;;;;;;;;;;;;;;;17.63;47.36;101312.38;5077790;28;1055;-49
2023/12/27 08:33:32;;;;;;;;;;;;;;;16.62;49.78;101319.56;5060116;28;1910;-47
2023/12/27 08:35:59;;;;;;;;;;;;;;;16.13;50.90;101332.28;5058899;28;1421;-46
2023/12/27 08:38:25;;;;;;;;;;;;;;;15.86;51.81;101332.22;5061255;28;1114;-47
2023/12/27 08:40:51;;;;;;;;;;;;;;;15.78;51.84;101335.34;5077590;28;1047;-48
2023/12/27 08:43:18;;;;;;;;;;;;;;;15.68;52.20;101325.94;5077124;28;1427;-42
2023/12/27 08:45:44;;;;;;;;;;;;;;;16.86;49.27;101320.91;5077477;28;1235;-45
2023/12/27 08:48:09;;;;;;;;;;;;;;;17.41;47.65;101313.34;5070169;28;1039;-46
2023/12/27 08:50:36;;;;;;;;;;;;;;;16.45;50.25;101295.81;5067939;28;1060;-47
2023/12/27 08:53:02;;;;;;;;;;;;;;;16.12;51.03;101302.31;5073519;28;1882;-49
2023/12/27 08:55:27;;;;;;;;;;;;;;;15.89;51.61;101304.28;5076996;28;1059;-45
2023/12/27 08:57:53;;;;;;;;;;;;;;;15.67;52.15;101291.38;5063645;28;1175;-44
2023/12/27 09:00:19;;;;;;;;;;;;;;;15.69;52.08;101288.38;5076368;28;887;-45
2023/12/27 09:02:45;;;;;;;;;;;;;;;16.91;49.58;101292.66;5063584;28;1174;-49
2023/12/27 09:05:11;;;;;;;;;;;;;;;17.27;48.20;101288.22;5077034;28;1051;-45
2023/12/27 09:07:37;;;;;;;;;;;;;;;16.42;50.46;101294.44;5073519;28;1193;-47
2023/12/27 09:10:04;;;;;;;;;;;;;;;16.07;51.20;101308.59;5066612;28;1222;-44
2023/12/27 09:12:29;;;;;;;;;;;;;;;15.89;51.84;101298.78;5076654;28;1985;-43
2023/12/27 09:14:55;;;;;;;;;;;;;;;16.08;51.42;101313.81;5076872;28;1079;-47
2023/12/27 09:17:20;;;;;;;;;;;;;;;17.53;47.92;101315.88;5073734;28;1071;-46
2023/12/27 09:19:46;;;;;;;;;;;;;;;16.96;49.13;101306.44;5056587;28;1059;-49
2023/12/27 09:22:12;;;;;;;;;;;;;;;16.41;50.46;101306.50;5057084;28;1499;-48
2023/12/27 09:24:37;;;;;;;;;;;;;;;16.15;50.95;101305.41;5066003;28;873;-47
2023/12/27 09:27:03;;;;;;;;;;;;;;;15.89;51.70;101316.09;5076896;28;1123;-45
2023/12/27 09:29:30;;;;;;;;;;;;;;;15.77;51.94;101315.34;5076561;28;1118;-46
2023/12/27 09:31:56;;;;;;;;;;;;;;;15.68;52.11;101314.97;5076349;28;1173;-43
2023/12/27 09:34:21;;;;;;;;;;;;;;;16.69;49.91;101307.31;5076576;28;1977;-46
2023/12/27 09:36:47;;;;;;;;;;;;;;;17.54;47.58;101300.19;5062116;28;1123;-44
2023/12/27 09:39:13;;;;;;;;;;;;;;;16.57;50.17;101298.41;5066800;28;1087;-42
2023/12/27 09:41:42;;;;;;;;;;;;;;;16.13;51.01;101293.00;5072305;28;1162;-44
2023/12/27 09:44:08;;;;;;;;;;;;;;;15.95;51.68;101286.81;5076669;28;1027;-44
2023/12/27 09:46:33;;;;;;;;;;;;;;;15.79;51.98;101280.28;5076403;28;1146;-45
2023/12/27 09:48:59;;;;;;;;;;;;;;;15.70;52.29;101285.38;5072679;28;966;-46
2023/12/27 09:51:24;;;;;;;;;;;;;;;17.22;48.71;101292.88;5076675;28;1107;-46
2023/12/27 09:53:50;;;;;;;;;;;;;;;17.48;47.68;101287.53;5058171;28;1971;-47
2023/12/27 09:56:16;;;;;;;;;;;;;;;16.55;50.09;101281.34;5075808;28;1094;-45
2023/12/27 09:58:42;;;;;;;;;;;;;;;16.15;51.28;101286.19;5075970;28;1010;-44
2023/12/27 10:01:07;;;;;;;;;;;;;;;15.96;51.59;101285.69;5058164;28;1075;-49
2023/12/27 10:03:34;;;;;;;;;;;;;;;15.83;51.82;101284.19;5075698;28;1067;-51
2023/12/27 10:06:16;;;;;;;;;;;;;;;15.78;51.94;101289.59;5075166;28;1094;-48
2023/12/27 10:08:41;;;;;;;;;;;;;;;17.00;49.33;101282.00;5064012;28;1048;-52
2023/12/27 10:11:08;;;;;;;;;;;;;;;17.41;47.90;101277.59;5074153;28;1135;-48
2023/12/27 10:13:38;;;;;;;;;;;;;;;16.51;50.22;101275.56;5053813;28;1968;-54
2023/12/27 10:16:04;;;;;;;;;;;;;;;16.09;51.41;101279.00;5057724;28;1051;-46
2023/12/27 10:18:30;;;;;;;;;;;;;;;15.95;51.80;101270.34;5057919;28;1067;-50
2023/12/27 10:20:56;;;;;;;;;;;;;;;15.86;52.01;101277.38;5070115;28;1091;-52
2023/12/27 10:23:22;;;;;;;;;;;;;;;16.25;51.07;101272.56;5068028;28;1106;-51
2023/12/27 10:25:47;;;;;;;;;;;;;;;17.57;47.75;101263.91;5045388;28;1606;-51
2023/12/27 10:28:13;;;;;;;;;;;;;;;16.67;49.68;101271.03;5076008;28;1090;-46
2023/12/27 10:30:38;;;;;;;;;;;;;;;16.10;50.93;101253.22;5070167;28;1127;-46
2023/12/27 10:33:04;;;;;;;;;;;;;;;15.95;51.59;101267.59;5065527;28;1902;-49
2023/12/27 10:35:34;;;;;;;;;;;;;;;15.81;52.05;101263.59;5074082;28;1036;-46
2023/12/27 10:38:00;;;;;;;;;;;;;;;15.74;52.22;101253.63;5070352;28;863;-43
2023/12/27 10:40:26;;;;;;;;;;;;;;;16.72;50.10;101259.28;5075029;28;1020;-44
2023/12/27 10:42:52;;;;;;;;;;;;;;;17.70;47.35;101259.88;5058012;28;1044;-43
2023/12/27 10:45:19;;;;;;;;;;;;;;;16.65;50.08;101248.50;5075943;28;1007;-46
2023/12/27 10:47:44;;;;;;;;;;;;;;;16.25;50.88;101258.03;5075728;28;1124;-43
2023/12/27 10:50:12;;;;;;;;;;;;;;;16.00;51.81;101256.66;5045394;28;1081;-47
2023/12/27 10:52:38;;;;;;;;;;;;;;;15.87;51.92;101265.31;5075324;28;1967;-46
2023/12/27 10:55:04;;;;;;;;;;;;;;;15.79;52.19;101261.09;5044375;28;1036;-49
2023/12/27 10:57:30;;;;;;;;;;;;;;;16.84;49.59;101248.91;5057900;28;1040;-46
2023/12/27 10:59:55;;;;;;;;;;;;;;;17.56;47.69;101262.28;5057455;28;1040;-51
2023/12/27 11:02:22;;;;;;;;;;;;;;;16.60;50.27;101265.75;5068822;28;878;-51
2023/12/27 11:04:47;;;;;;;;;;;;;;;16.20;51.21;101249.72;5075069;28;1066;-49
2023/12/27 11:07:13;;;;;;;;;;;;;;;15.97;51.93;101251.72;5075358;28;1064;-48
2023/12/27 11:09:39;;;;;;;;;;;;;;;15.81;52.39;101253.47;5054586;28;1132;-49
2023/12/27 11:12:06;;;;;;;;;;;;;;;15.74;52.50;101259.09;5051005;28;1021;-50
2023/12/27 11:14:33;;;;;;;;;;;;;;;16.91;49.66;101265.19;5053361;28;1978;-51
2023/12/27 11:16:58;;;;;;;;;;;;;;;17.19;48.66;101269.50;5075222;28;1127;-50
2023/12/27 11:19:24;;;;;;;;;;;;;;;16.40;50.88;101269.16;5059749;28;1194;-49
2023/12/27 11:21:50;;;;;;;;;;;;;;;16.16;51.59;101265.06;5050767;28;1191;-49
2023/12/27 11:24:16;;;;;;;;;;;;;;;15.86;52.13;101267.22;5077901;28;1134;-51
2023/12/27 11:26:42;;;;;;;;;;;;;;;15.81;52.20;101271.81;5073304;28;1044;-51
2023/12/27 11:29:11;;;;;;;;;;;;;;;15.64;52.61;101282.81;5078843;28;1534;-48
2023/12/27 11:31:39;;;;;;;;;;;;;;;17.15;49.07;101287.59;5049019;28;1059;-45
2023/12/27 11:34:05;;;;;;;;;;;;;;;17.33;48.36;101291.84;5060632;28;1898;-48
2023/12/27 11:36:31;;;;;;;;;;;;;;;16.48;50.41;101278.84;5077414;28;1056;-46
2023/12/27 11:38:56;;;;;;;;;;;;;;;16.18;51.47;101274.69;5078646;28;967;-48
2023/12/27 11:41:22;;;;;;;;;;;;;;;15.97;51.94;101270.09;5060872;28;1174;-45
2023/12/27 11:43:51;;;;;;;;;;;;;;;15.87;52.33;101290.00;5078824;28;1007;-45
2023/12/27 11:46:23;;;;;;;;;;;;;;;15.70;52.53;101293.59;5078904;28;1039;-45
2023/12/27 11:48:48;;;;;;;;;;;;;;;16.82;50.19;101286.00;5074725;28;1083;-46
2023/12/27 11:51:30;;;;;;;;;;;;;;;17.57;47.65;101295.00;5073023;28;1230;-46
2023/12/27 11:53:55;;;;;;;;;;;;;;;16.51;50.76;101282.97;5078400;28;1905;-46
2023/12/27 11:56:21;;;;;;;;;;;;;;;16.19;51.33;101276.34;5078159;28;1125;-44
2023/12/27 11:58:47;;;;;;;;;;;;;;;15.99;51.98;101282.47;5078370;28;1131;-47
2023/12/27 12:01:19;;;;;;;;;;;;;;;15.86;52.44;101266.41;5069585;28;1147;-49
2023/12/27 12:03:45;;;;;;;;;;;;;;;15.91;52.20;101277.44;5064995;28;1064;-45
2023/12/27 12:06:22;;;;;;;;;;;;;;;17.42;48.43;101282.00;5078168;28;1230;-46
2023/12/27 12:08:48;;;;;;;;;;;;;;;16.83;49.65;101279.38;5078054;28;1095;-49
2023/12/27 12:11:14;;;;;;;;;;;;;;;16.33;51.28;101279.50;5078132;28;1123;-46
2023/12/27 12:13:40;;;;;;;;;;;;;;;16.04;51.81;101270.72;5077002;28;1921;-44
2023/12/27 12:16:08;;;;;;;;;;;;;;;15.91;52.24;101269.19;5078243;28;1115;-44
2023/12/27 12:18:34;;;;;;;;;;;;;;;15.79;52.45;101272.06;5077997;28;1110;-45
2023/12/27 12:21:00;;;;;;;;;;;;;;;15.69;52.57;101274.66;5077750;28;1114;-47
2023/12/27 12:23:29;;;;;;;;;;;;;;;16.92;49.89;101262.19;5078110;28;1121;-45
2023/12/27 12:26:00;;;;;;;;;;;;;;;17.60;47.77;101257.91;5069438;28;1020;-48
2023/12/27 12:28:29;;;;;;;;;;;;;;;16.62;50.46;101262.75;5078003;28;1086;-48
2023/12/27 12:30:55;;;;;;;;;;;;;;;16.19;51.34;101264.56;5076714;28;1064;-48
2023/12/27 12:33:21;;;;;;;;;;;;;;;15.98;52.21;101263.53;5077534;28;1911;-44
2023/12/27 12:35:47;;;;;;;;;;;;;;;15.88;52.23;101275.22;5077665;28;1120;-47
2023/12/27 12:38:12;;;;;;;;;;;;;;;15.83;52.55;101272.41;5066540;28;1166;-45
2023/12/27 12:40:38;;;;;;;;;;;;;;;17.30;48.87;101281.38;5059760;28;1198;-47